sensor_id;sensor_type;location;lat;lon;timestamp;P1;durP1;ratioP1;P2;durP2;ratioP2
23282;SDS011;11810;51.178;3.878;2023-02-01T00:01:18;32.42;;;8.57;;
23282;SDS011;11810;51.178;3.878;2023-02-01T00:03:44;29.95;;;8.10;;
23282;SDS011;11810;51.178;3.878;2023-02-01T00:06:10;25.27;;;7.05;;
23282;SDS011;11810;51.178;3.878;2023-02-01T00:08:35;38.70;;;8.65;;
23282;SDS011;11810;51.178;3.878;2023-02-01T00:11:05;27.67;;;7.30;;
23282;SDS011;11810;51.178;3.878;2023-02-01T00:13:34;24.88;;;7.22;;
23282;SDS011;11810;51.178;3.878;2023-02-01T00:16:21;27.90;;;6.80;;
23282;SDS011;11810;51.178;3.878;2023-02-01T00:18:50;34.72;;;6.65;;
23282;SDS011;11810;51.178;3.878;2023-02-01T00:21:18;27.90;;;7.38;;
23282;SDS011;11810;51.178;3.878;2023-02-01T00:23:47;26.38;;;6.20;;
23282;SDS011;11810;51.178;3.878;2023-02-01T00:26:17;34.47;;;7.82;;
23282;SDS011;11810;51.178;3.878;2023-02-01T00:28:45;30.58;;;6.97;;
23282;SDS011;11810;51.178;3.878;2023-02-01T00:31:11;26.65;;;6.80;;
23282;SDS011;11810;51.178;3.878;2023-02-01T00:33:37;32.78;;;7.20;;
23282;SDS011;11810;51.178;3.878;2023-02-01T00:36:04;29.40;;;8.20;;
23282;SDS011;11810;51.178;3.878;2023-02-01T00:38:32;40.45;;;7.63;;
23282;SDS011;11810;51.178;3.878;2023-02-01T00:41:32;33.60;;;7.68;;
23282;SDS011;11810;51.178;3.878;2023-02-01T00:43:51;34.17;;;6.70;;
23282;SDS011;11810;51.178;3.878;2023-02-01T00:46:18;30.85;;;7.18;;
23282;SDS011;11810;51.178;3.878;2023-02-01T00:48:44;24.63;;;6.72;;
23282;SDS011;11810;51.178;3.878;2023-02-01T00:51:12;31.63;;;6.32;;
23282;SDS011;11810;51.178;3.878;2023-02-01T00:55:30;28.70;;;5.68;;
23282;SDS011;11810;51.178;3.878;2023-02-01T00:57:58;29.65;;;5.68;;
23282;SDS011;11810;51.178;3.878;2023-02-01T01:00:24;32.75;;;6.22;;
23282;SDS011;11810;51.178;3.878;2023-02-01T01:02:50;28.40;;;6.88;;
23282;SDS011;11810;51.178;3.878;2023-02-01T01:05:31;28.50;;;5.88;;
23282;SDS011;11810;51.178;3.878;2023-02-01T01:07:57;23.08;;;6.18;;
23282;SDS011;11810;51.178;3.878;2023-02-01T01:10:23;26.45;;;5.90;;
23282;SDS011;11810;51.178;3.878;2023-02-01T01:12:49;37.55;;;5.93;;
23282;SDS011;11810;51.178;3.878;2023-02-01T01:15:15;22.20;;;5.53;;
23282;SDS011;11810;51.178;3.878;2023-02-01T01:17:41;24.27;;;5.15;;
23282;SDS011;11810;51.178;3.878;2023-02-01T01:20:08;26.17;;;4.80;;
23282;SDS011;11810;51.178;3.878;2023-02-01T01:22:34;27.15;;;4.97;;
23282;SDS011;11810;51.178;3.878;2023-02-01T01:25:00;22.88;;;4.68;;
23282;SDS011;11810;51.178;3.878;2023-02-01T01:27:26;27.35;;;4.70;;
23282;SDS011;11810;51.178;3.878;2023-02-01T01:29:52;27.15;;;4.95;;
23282;SDS011;11810;51.178;3.878;2023-02-01T01:32:18;22.60;;;5.60;;
23282;SDS011;11810;51.178;3.878;2023-02-01T01:34:44;34.28;;;5.65;;
23282;SDS011;11810;51.178;3.878;2023-02-01T01:37:10;24.80;;;5.50;;
23282;SDS011;11810;51.178;3.878;2023-02-01T01:39:36;22.63;;;5.13;;
23282;SDS011;11810;51.178;3.878;2023-02-01T01:42:02;33.72;;;4.90;;
23282;SDS011;11810;51.178;3.878;2023-02-01T01:47:24;26.10;;;4.68;;
23282;SDS011;11810;51.178;3.878;2023-02-01T01:49:56;22.17;;;6.25;;
23282;SDS011;11810;51.178;3.878;2023-02-01T01:52:22;30.00;;;5.45;;
23282;SDS011;11810;51.178;3.878;2023-02-01T01:54:50;24.88;;;4.97;;
23282;SDS011;11810;51.178;3.878;2023-02-01T01:57:19;26.98;;;4.82;;
23282;SDS011;11810;51.178;3.878;2023-02-01T01:59:58;15.63;;;3.97;;
23282;SDS011;11810;51.178;3.878;2023-02-01T02:02:40;21.88;;;4.47;;
23282;SDS011;11810;51.178;3.878;2023-02-01T02:05:08;22.30;;;5.15;;
23282;SDS011;11810;51.178;3.878;2023-02-01T02:07:36;16.73;;;3.95;;
23282;SDS011;11810;51.178;3.878;2023-02-01T02:10:06;25.02;;;4.80;;
23282;SDS011;11810;51.178;3.878;2023-02-01T02:12:38;22.95;;;5.72;;
23282;SDS011;11810;51.178;3.878;2023-02-01T02:15:06;27.13;;;5.95;;
23282;SDS011;11810;51.178;3.878;2023-02-01T02:20:18;45.00;;;11.73;;
23282;SDS011;11810;51.178;3.878;2023-02-01T02:36:17;74.13;;;24.65;;
23282;SDS011;11810;51.178;3.878;2023-02-01T02:45:13;78.22;;;24.77;;
23282;SDS011;11810;51.178;3.878;2023-02-01T02:48:11;76.95;;;26.27;;
23282;SDS011;11810;51.178;3.878;2023-02-01T02:52:48;67.22;;;21.67;;
23282;SDS011;11810;51.178;3.878;2023-02-01T02:56:46;59.58;;;21.55;;
23282;SDS011;11810;51.178;3.878;2023-02-01T02:59:32;72.20;;;22.20;;
23282;SDS011;11810;51.178;3.878;2023-02-01T03:02:18;69.15;;;21.80;;
23282;SDS011;11810;51.178;3.878;2023-02-01T03:05:04;68.70;;;22.67;;
23282;SDS011;11810;51.178;3.878;2023-02-01T03:07:46;60.20;;;19.75;;
23282;SDS011;11810;51.178;3.878;2023-02-01T03:11:49;60.30;;;19.10;;
23282;SDS011;11810;51.178;3.878;2023-02-01T03:14:36;66.78;;;23.25;;
23282;SDS011;11810;51.178;3.878;2023-02-01T03:17:13;83.00;;;28.45;;
23282;SDS011;11810;51.178;3.878;2023-02-01T03:19:43;82.18;;;31.00;;
23282;SDS011;11810;51.178;3.878;2023-02-01T03:22:17;81.43;;;28.70;;
23282;SDS011;11810;51.178;3.878;2023-02-01T03:24:48;80.18;;;24.42;;
23282;SDS011;11810;51.178;3.878;2023-02-01T03:27:24;84.00;;;23.70;;
23282;SDS011;11810;51.178;3.878;2023-02-01T03:29:54;56.75;;;18.38;;
23282;SDS011;11810;51.178;3.878;2023-02-01T03:32:21;48.03;;;13.77;;
23282;SDS011;11810;51.178;3.878;2023-02-01T03:34:48;29.58;;;7.95;;
23282;SDS011;11810;51.178;3.878;2023-02-01T03:37:34;37.88;;;11.30;;
23282;SDS011;11810;51.178;3.878;2023-02-01T03:40:00;45.55;;;11.27;;
23282;SDS011;11810;51.178;3.878;2023-02-01T03:45:13;28.83;;;6.13;;
23282;SDS011;11810;51.178;3.878;2023-02-01T03:47:46;23.95;;;5.32;;
23282;SDS011;11810;51.178;3.878;2023-02-01T03:50:21;28.38;;;6.03;;
23282;SDS011;11810;51.178;3.878;2023-02-01T03:52:57;37.38;;;6.57;;
23282;SDS011;11810;51.178;3.878;2023-02-01T03:55:24;38.35;;;7.50;;
23282;SDS011;11810;51.178;3.878;2023-02-01T03:58:09;32.58;;;7.50;;
23282;SDS011;11810;51.178;3.878;2023-02-01T04:00:38;58.05;;;13.70;;
23282;SDS011;11810;51.178;3.878;2023-02-01T04:04:55;39.92;;;9.88;;
23282;SDS011;11810;51.178;3.878;2023-02-01T04:07:21;43.60;;;11.07;;
23282;SDS011;11810;51.178;3.878;2023-02-01T04:09:47;62.22;;;14.25;;
23282;SDS011;11810;51.178;3.878;2023-02-01T04:12:13;46.60;;;10.18;;
23282;SDS011;11810;51.178;3.878;2023-02-01T04:14:39;45.15;;;9.63;;
23282;SDS011;11810;51.178;3.878;2023-02-01T04:17:05;41.50;;;9.98;;
23282;SDS011;11810;51.178;3.878;2023-02-01T04:19:30;53.72;;;10.77;;
23282;SDS011;11810;51.178;3.878;2023-02-01T04:21:56;62.35;;;15.10;;
23282;SDS011;11810;51.178;3.878;2023-02-01T04:24:22;43.78;;;12.55;;
23282;SDS011;11810;51.178;3.878;2023-02-01T04:26:48;51.75;;;11.93;;
23282;SDS011;11810;51.178;3.878;2023-02-01T04:29:14;44.13;;;11.52;;
23282;SDS011;11810;51.178;3.878;2023-02-01T04:31:40;43.92;;;11.25;;
23282;SDS011;11810;51.178;3.878;2023-02-01T04:34:06;49.22;;;13.15;;
23282;SDS011;11810;51.178;3.878;2023-02-01T04:36:32;52.80;;;13.52;;
23282;SDS011;11810;51.178;3.878;2023-02-01T04:38:58;42.42;;;10.20;;
23282;SDS011;11810;51.178;3.878;2023-02-01T04:44:05;49.17;;;14.07;;
23282;SDS011;11810;51.178;3.878;2023-02-01T04:46:31;42.00;;;10.75;;
23282;SDS011;11810;51.178;3.878;2023-02-01T04:48:57;43.30;;;10.40;;
23282;SDS011;11810;51.178;3.878;2023-02-01T04:51:23;46.15;;;11.48;;
23282;SDS011;11810;51.178;3.878;2023-02-01T04:53:49;56.63;;;14.75;;
23282;SDS011;11810;51.178;3.878;2023-02-01T04:56:15;51.85;;;14.23;;
23282;SDS011;11810;51.178;3.878;2023-02-01T04:58:41;51.05;;;13.90;;
23282;SDS011;11810;51.178;3.878;2023-02-01T05:01:07;50.88;;;14.07;;
23282;SDS011;11810;51.178;3.878;2023-02-01T05:03:33;47.15;;;13.45;;
23282;SDS011;11810;51.178;3.878;2023-02-01T05:08:03;44.65;;;9.27;;
23282;SDS011;11810;51.178;3.878;2023-02-01T05:10:29;39.67;;;8.55;;
23282;SDS011;11810;51.178;3.878;2023-02-01T05:12:55;30.10;;;8.07;;
23282;SDS011;11810;51.178;3.878;2023-02-01T05:15:39;31.13;;;7.20;;
23282;SDS011;11810;51.178;3.878;2023-02-01T05:18:05;34.70;;;6.97;;
23282;SDS011;11810;51.178;3.878;2023-02-01T05:20:31;46.83;;;8.07;;
23282;SDS011;11810;51.178;3.878;2023-02-01T05:22:57;30.02;;;7.90;;
23282;SDS011;11810;51.178;3.878;2023-02-01T05:25:23;43.75;;;11.30;;
23282;SDS011;11810;51.178;3.878;2023-02-01T05:27:49;49.63;;;12.05;;
23282;SDS011;11810;51.178;3.878;2023-02-01T05:30:15;37.63;;;10.40;;
23282;SDS011;11810;51.178;3.878;2023-02-01T05:32:41;44.47;;;8.50;;
23282;SDS011;11810;51.178;3.878;2023-02-01T05:35:07;45.65;;;10.38;;
23282;SDS011;11810;51.178;3.878;2023-02-01T05:37:34;46.33;;;10.00;;
23282;SDS011;11810;51.178;3.878;2023-02-01T05:39:59;78.70;;;24.42;;
23282;SDS011;11810;51.178;3.878;2023-02-01T05:42:25;88.03;;;30.40;;
23282;SDS011;11810;51.178;3.878;2023-02-01T05:44:51;74.65;;;27.38;;
23282;SDS011;11810;51.178;3.878;2023-02-01T05:47:17;80.72;;;23.23;;
23282;SDS011;11810;51.178;3.878;2023-02-01T05:49:43;68.72;;;20.98;;
23282;SDS011;11810;51.178;3.878;2023-02-01T05:52:09;75.25;;;23.58;;
23282;SDS011;11810;51.178;3.878;2023-02-01T05:54:35;66.22;;;25.38;;
23282;SDS011;11810;51.178;3.878;2023-02-01T05:57:01;78.97;;;26.50;;
23282;SDS011;11810;51.178;3.878;2023-02-01T06:00:11;75.15;;;26.17;;
23282;SDS011;11810;51.178;3.878;2023-02-01T06:04:12;96.63;;;32.58;;
23282;SDS011;11810;51.178;3.878;2023-02-01T06:06:38;97.90;;;35.58;;
23282;SDS011;11810;51.178;3.878;2023-02-01T06:09:04;111.68;;;40.47;;
23282;SDS011;11810;51.178;3.878;2023-02-01T06:11:30;107.80;;;39.58;;
23282;SDS011;11810;51.178;3.878;2023-02-01T06:13:57;104.82;;;35.53;;
23282;SDS011;11810;51.178;3.878;2023-02-01T06:16:23;121.93;;;43.38;;
23282;SDS011;11810;51.178;3.878;2023-02-01T06:18:49;109.03;;;35.97;;
23282;SDS011;11810;51.178;3.878;2023-02-01T06:21:15;65.30;;;16.92;;
23282;SDS011;11810;51.178;3.878;2023-02-01T06:23:49;76.72;;;26.38;;
23282;SDS011;11810;51.178;3.878;2023-02-01T06:26:19;86.45;;;28.15;;
23282;SDS011;11810;51.178;3.878;2023-02-01T06:28:45;86.57;;;27.83;;
23282;SDS011;11810;51.178;3.878;2023-02-01T06:31:11;105.43;;;35.88;;
23282;SDS011;11810;51.178;3.878;2023-02-01T06:33:37;96.80;;;30.35;;
23282;SDS011;11810;51.178;3.878;2023-02-01T06:36:05;96.53;;;33.15;;
23282;SDS011;11810;51.178;3.878;2023-02-01T06:38:32;89.38;;;29.85;;
23282;SDS011;11810;51.178;3.878;2023-02-01T06:41:02;75.13;;;27.52;;
23282;SDS011;11810;51.178;3.878;2023-02-01T06:43:29;103.93;;;33.95;;
23282;SDS011;11810;51.178;3.878;2023-02-01T06:46:02;97.43;;;34.20;;
23282;SDS011;11810;51.178;3.878;2023-02-01T06:48:29;111.65;;;42.78;;
23282;SDS011;11810;51.178;3.878;2023-02-01T06:50:55;128.57;;;46.22;;
23282;SDS011;11810;51.178;3.878;2023-02-01T06:53:21;129.73;;;48.45;;
23282;SDS011;11810;51.178;3.878;2023-02-01T06:55:53;126.43;;;40.72;;
23282;SDS011;11810;51.178;3.878;2023-02-01T06:58:23;63.63;;;20.38;;
23282;SDS011;11810;51.178;3.878;2023-02-01T07:00:49;106.22;;;30.67;;
23282;SDS011;11810;51.178;3.878;2023-02-01T07:03:15;102.53;;;28.63;;
23282;SDS011;11810;51.178;3.878;2023-02-01T07:05:41;91.68;;;29.90;;
23282;SDS011;11810;51.178;3.878;2023-02-01T07:08:07;81.75;;;25.60;;
23282;SDS011;11810;51.178;3.878;2023-02-01T07:11:24;51.42;;;16.27;;
23282;SDS011;11810;51.178;3.878;2023-02-01T07:13:52;52.45;;;14.50;;
23282;SDS011;11810;51.178;3.878;2023-02-01T07:17:23;50.08;;;14.65;;
23282;SDS011;11810;51.178;3.878;2023-02-01T07:19:50;64.57;;;18.67;;
23282;SDS011;11810;51.178;3.878;2023-02-01T07:22:16;73.38;;;20.63;;
23282;SDS011;11810;51.178;3.878;2023-02-01T07:24:42;60.85;;;19.52;;
23282;SDS011;11810;51.178;3.878;2023-02-01T07:27:09;68.30;;;19.45;;
23282;SDS011;11810;51.178;3.878;2023-02-01T07:29:35;61.55;;;17.88;;
23282;SDS011;11810;51.178;3.878;2023-02-01T07:32:01;45.10;;;11.57;;
23282;SDS011;11810;51.178;3.878;2023-02-01T07:34:27;47.83;;;11.98;;
23282;SDS011;11810;51.178;3.878;2023-02-01T07:38:28;37.03;;;8.25;;
23282;SDS011;11810;51.178;3.878;2023-02-01T07:40:58;36.78;;;12.15;;
23282;SDS011;11810;51.178;3.878;2023-02-01T07:43:25;49.90;;;14.43;;
23282;SDS011;11810;51.178;3.878;2023-02-01T07:46:30;67.57;;;23.08;;
23282;SDS011;11810;51.178;3.878;2023-02-01T07:48:56;60.75;;;20.63;;
23282;SDS011;11810;51.178;3.878;2023-02-01T07:52:31;38.00;;;11.65;;
23282;SDS011;11810;51.178;3.878;2023-02-01T07:59:32;42.53;;;13.27;;
23282;SDS011;11810;51.178;3.878;2023-02-01T08:01:58;69.78;;;21.25;;
23282;SDS011;11810;51.178;3.878;2023-02-01T08:04:24;83.30;;;24.42;;
23282;SDS011;11810;51.178;3.878;2023-02-01T08:06:50;49.50;;;15.43;;
23282;SDS011;11810;51.178;3.878;2023-02-01T08:09:16;53.20;;;15.05;;
23282;SDS011;11810;51.178;3.878;2023-02-01T08:11:42;47.70;;;15.25;;
23282;SDS011;11810;51.178;3.878;2023-02-01T08:14:08;57.63;;;17.33;;
23282;SDS011;11810;51.178;3.878;2023-02-01T08:16:34;55.45;;;16.48;;
23282;SDS011;11810;51.178;3.878;2023-02-01T08:19:02;66.68;;;20.40;;
23282;SDS011;11810;51.178;3.878;2023-02-01T08:21:28;69.07;;;23.80;;
23282;SDS011;11810;51.178;3.878;2023-02-01T08:24:02;80.40;;;26.40;;
23282;SDS011;11810;51.178;3.878;2023-02-01T08:26:29;82.30;;;28.35;;
23282;SDS011;11810;51.178;3.878;2023-02-01T08:28:55;74.60;;;29.20;;
23282;SDS011;11810;51.178;3.878;2023-02-01T08:31:25;79.07;;;27.23;;
23282;SDS011;11810;51.178;3.878;2023-02-01T08:33:53;85.25;;;26.73;;
23282;SDS011;11810;51.178;3.878;2023-02-01T08:36:21;93.55;;;32.25;;
23282;SDS011;11810;51.178;3.878;2023-02-01T08:38:48;108.80;;;30.10;;
23282;SDS011;11810;51.178;3.878;2023-02-01T08:41:16;100.18;;;27.50;;
23282;SDS011;11810;51.178;3.878;2023-02-01T08:45:53;68.15;;;15.55;;
23282;SDS011;11810;51.178;3.878;2023-02-01T08:48:20;88.88;;;21.83;;
23282;SDS011;11810;51.178;3.878;2023-02-01T08:50:46;77.07;;;20.08;;
23282;SDS011;11810;51.178;3.878;2023-02-01T08:53:12;86.90;;;24.80;;
23282;SDS011;11810;51.178;3.878;2023-02-01T08:55:40;89.55;;;24.10;;
23282;SDS011;11810;51.178;3.878;2023-02-01T08:58:06;88.60;;;25.38;;
23282;SDS011;11810;51.178;3.878;2023-02-01T09:00:32;105.28;;;29.65;;
23282;SDS011;11810;51.178;3.878;2023-02-01T09:02:58;88.82;;;23.58;;
23282;SDS011;11810;51.178;3.878;2023-02-01T09:05:24;104.38;;;29.90;;
23282;SDS011;11810;51.178;3.878;2023-02-01T09:07:52;66.15;;;17.90;;
23282;SDS011;11810;51.178;3.878;2023-02-01T09:10:18;50.88;;;13.63;;
23282;SDS011;11810;51.178;3.878;2023-02-01T09:12:44;85.30;;;23.30;;
23282;SDS011;11810;51.178;3.878;2023-02-01T09:15:10;49.90;;;13.98;;
23282;SDS011;11810;51.178;3.878;2023-02-01T09:17:36;45.40;;;11.05;;
23282;SDS011;11810;51.178;3.878;2023-02-01T09:20:02;35.05;;;7.47;;
23282;SDS011;11810;51.178;3.878;2023-02-01T09:22:29;42.30;;;6.38;;
23282;SDS011;11810;51.178;3.878;2023-02-01T09:24:55;25.58;;;5.28;;
23282;SDS011;11810;51.178;3.878;2023-02-01T09:27:21;26.17;;;5.90;;
23282;SDS011;11810;51.178;3.878;2023-02-01T09:29:47;27.13;;;4.95;;
23282;SDS011;11810;51.178;3.878;2023-02-01T09:32:18;23.33;;;4.63;;
23282;SDS011;11810;51.178;3.878;2023-02-01T09:34:45;32.33;;;5.03;;
23282;SDS011;11810;51.178;3.878;2023-02-01T09:37:11;24.95;;;5.95;;
23282;SDS011;11810;51.178;3.878;2023-02-01T09:39:37;18.05;;;4.63;;
23282;SDS011;11810;51.178;3.878;2023-02-01T09:44:41;19.02;;;3.90;;
23282;SDS011;11810;51.178;3.878;2023-02-01T09:47:23;25.08;;;4.80;;
23282;SDS011;11810;51.178;3.878;2023-02-01T09:49:51;17.50;;;4.30;;
23282;SDS011;11810;51.178;3.878;2023-02-01T09:52:32;20.77;;;3.95;;
23282;SDS011;11810;51.178;3.878;2023-02-01T09:55:15;20.88;;;4.63;;
23282;SDS011;11810;51.178;3.878;2023-02-01T09:57:52;17.10;;;3.72;;
23282;SDS011;11810;51.178;3.878;2023-02-01T10:00:29;22.33;;;4.68;;
23282;SDS011;11810;51.178;3.878;2023-02-01T10:02:59;27.75;;;4.50;;
23282;SDS011;11810;51.178;3.878;2023-02-01T10:05:32;27.60;;;4.55;;
23282;SDS011;11810;51.178;3.878;2023-02-01T10:08:24;11.93;;;3.97;;
23282;SDS011;11810;51.178;3.878;2023-02-01T10:22:37;20.73;;;3.17;;
23282;SDS011;11810;51.178;3.878;2023-02-01T10:25:14;25.20;;;3.70;;
23282;SDS011;11810;51.178;3.878;2023-02-01T10:27:49;22.98;;;3.60;;
23282;SDS011;11810;51.178;3.878;2023-02-01T10:30:19;17.13;;;3.35;;
23282;SDS011;11810;51.178;3.878;2023-02-01T10:32:57;18.50;;;3.67;;
23282;SDS011;11810;51.178;3.878;2023-02-01T10:35:38;15.90;;;3.53;;
23282;SDS011;11810;51.178;3.878;2023-02-01T10:38:08;20.10;;;4.57;;
23282;SDS011;11810;51.178;3.878;2023-02-01T10:40:44;18.83;;;3.35;;
23282;SDS011;11810;51.178;3.878;2023-02-01T10:43:10;16.38;;;3.25;;
23282;SDS011;11810;51.178;3.878;2023-02-01T10:45:36;20.65;;;3.80;;
23282;SDS011;11810;51.178;3.878;2023-02-01T10:48:04;17.77;;;3.15;;
23282;SDS011;11810;51.178;3.878;2023-02-01T11:09:26;16.23;;;3.22;;
23282;SDS011;11810;51.178;3.878;2023-02-01T11:12:07;17.50;;;3.25;;
23282;SDS011;11810;51.178;3.878;2023-02-01T11:16:54;11.00;;;3.00;;
23282;SDS011;11810;51.178;3.878;2023-02-01T11:19:22;19.77;;;3.65;;
23282;SDS011;11810;51.178;3.878;2023-02-01T11:21:49;18.08;;;2.80;;
23282;SDS011;11810;51.178;3.878;2023-02-01T11:24:31;22.55;;;3.72;;
23282;SDS011;11810;51.178;3.878;2023-02-01T11:27:01;19.77;;;3.60;;
23282;SDS011;11810;51.178;3.878;2023-02-01T11:29:35;14.68;;;2.63;;
23282;SDS011;11810;51.178;3.878;2023-02-01T11:32:13;17.15;;;3.05;;
23282;SDS011;11810;51.178;3.878;2023-02-01T11:34:45;14.63;;;2.88;;
23282;SDS011;11810;51.178;3.878;2023-02-01T11:37:37;13.13;;;3.35;;
23282;SDS011;11810;51.178;3.878;2023-02-01T11:42:56;13.18;;;2.83;;
23282;SDS011;11810;51.178;3.878;2023-02-01T11:45:25;18.98;;;3.40;;
23282;SDS011;11810;51.178;3.878;2023-02-01T11:47:52;17.52;;;3.08;;
23282;SDS011;11810;51.178;3.878;2023-02-01T11:50:22;17.05;;;3.17;;
23282;SDS011;11810;51.178;3.878;2023-02-01T12:06:18;15.98;;;2.55;;
23282;SDS011;11810;51.178;3.878;2023-02-01T12:12:03;17.65;;;3.05;;
23282;SDS011;11810;51.178;3.878;2023-02-01T12:17:50;16.08;;;2.47;;
23282;SDS011;11810;51.178;3.878;2023-02-01T12:23:41;11.25;;;2.50;;
23282;SDS011;11810;51.178;3.878;2023-02-01T12:46:13;12.57;;;2.70;;
23282;SDS011;11810;51.178;3.878;2023-02-01T12:51:23;10.82;;;2.70;;
23282;SDS011;11810;51.178;3.878;2023-02-01T12:53:54;18.13;;;3.35;;
23282;SDS011;11810;51.178;3.878;2023-02-01T12:56:27;11.27;;;2.53;;
23282;SDS011;11810;51.178;3.878;2023-02-01T12:59:36;14.50;;;2.90;;
23282;SDS011;11810;51.178;3.878;2023-02-01T13:10:51;12.07;;;2.60;;
23282;SDS011;11810;51.178;3.878;2023-02-01T13:13:32;15.13;;;2.50;;
23282;SDS011;11810;51.178;3.878;2023-02-01T13:16:02;17.55;;;3.28;;
23282;SDS011;11810;51.178;3.878;2023-02-01T13:18:38;17.45;;;3.08;;
23282;SDS011;11810;51.178;3.878;2023-02-01T13:21:16;20.50;;;4.00;;
23282;SDS011;11810;51.178;3.878;2023-02-01T13:23:54;16.80;;;3.33;;
23282;SDS011;11810;51.178;3.878;2023-02-01T13:26:20;12.02;;;3.05;;
23282;SDS011;11810;51.178;3.878;2023-02-01T13:28:51;12.10;;;2.60;;
23282;SDS011;11810;51.178;3.878;2023-02-01T13:31:44;22.20;;;3.15;;
23282;SDS011;11810;51.178;3.878;2023-02-01T13:34:29;20.27;;;3.30;;
23282;SDS011;11810;51.178;3.878;2023-02-01T13:37:26;19.25;;;3.72;;
23282;SDS011;11810;51.178;3.878;2023-02-01T13:45:16;14.55;;;2.80;;
23282;SDS011;11810;51.178;3.878;2023-02-01T13:47:46;16.45;;;3.33;;
23282;SDS011;11810;51.178;3.878;2023-02-01T13:52:51;15.05;;;3.22;;
23282;SDS011;11810;51.178;3.878;2023-02-01T13:57:46;15.88;;;3.03;;
23282;SDS011;11810;51.178;3.878;2023-02-01T14:13:31;23.15;;;4.13;;
23282;SDS011;11810;51.178;3.878;2023-02-01T14:21:18;14.60;;;3.03;;
23282;SDS011;11810;51.178;3.878;2023-02-01T14:26:20;17.70;;;3.25;;
23282;SDS011;11810;51.178;3.878;2023-02-01T14:28:56;25.38;;;4.82;;
23282;SDS011;11810;51.178;3.878;2023-02-01T14:33:58;18.42;;;3.33;;
23282;SDS011;11810;51.178;3.878;2023-02-01T14:36:25;19.92;;;3.58;;
23282;SDS011;11810;51.178;3.878;2023-02-01T14:39:03;26.98;;;4.18;;
23282;SDS011;11810;51.178;3.878;2023-02-01T14:49:33;23.25;;;4.50;;
23282;SDS011;11810;51.178;3.878;2023-02-01T14:52:09;22.70;;;4.50;;
23282;SDS011;11810;51.178;3.878;2023-02-01T14:54:41;15.48;;;2.50;;
23282;SDS011;11810;51.178;3.878;2023-02-01T14:57:14;20.83;;;4.53;;
23282;SDS011;11810;51.178;3.878;2023-02-01T14:59:42;18.73;;;3.95;;
23282;SDS011;11810;51.178;3.878;2023-02-01T15:02:30;26.55;;;3.88;;
23282;SDS011;11810;51.178;3.878;2023-02-01T15:04:58;18.77;;;4.40;;
23282;SDS011;11810;51.178;3.878;2023-02-01T15:07:24;21.38;;;4.25;;
23282;SDS011;11810;51.178;3.878;2023-02-01T15:09:53;27.85;;;4.38;;
23282;SDS011;11810;51.178;3.878;2023-02-01T15:12:23;24.95;;;4.78;;
23282;SDS011;11810;51.178;3.878;2023-02-01T15:15:12;24.75;;;5.25;;
23282;SDS011;11810;51.178;3.878;2023-02-01T15:17:41;21.70;;;4.63;;
23282;SDS011;11810;51.178;3.878;2023-02-01T15:22:40;34.35;;;7.53;;
23282;SDS011;11810;51.178;3.878;2023-02-01T15:25:29;27.13;;;4.78;;
23282;SDS011;11810;51.178;3.878;2023-02-01T15:27:54;24.92;;;5.15;;
23282;SDS011;11810;51.178;3.878;2023-02-01T15:31:37;24.70;;;5.10;;
23282;SDS011;11810;51.178;3.878;2023-02-01T15:34:06;25.02;;;4.80;;
23282;SDS011;11810;51.178;3.878;2023-02-01T15:36:32;25.00;;;4.88;;
23282;SDS011;11810;51.178;3.878;2023-02-01T15:39:11;26.80;;;6.45;;
23282;SDS011;11810;51.178;3.878;2023-02-01T15:41:45;20.52;;;5.22;;
23282;SDS011;11810;51.178;3.878;2023-02-01T15:47:05;24.23;;;6.28;;
23282;SDS011;11810;51.178;3.878;2023-02-01T15:49:42;28.77;;;7.57;;
23282;SDS011;11810;51.178;3.878;2023-02-01T15:52:22;39.63;;;8.57;;
23282;SDS011;11810;51.178;3.878;2023-02-01T15:54:52;52.35;;;12.73;;
23282;SDS011;11810;51.178;3.878;2023-02-01T15:57:27;37.28;;;9.73;;
23282;SDS011;11810;51.178;3.878;2023-02-01T15:59:59;35.72;;;8.45;;
23282;SDS011;11810;51.178;3.878;2023-02-01T16:02:35;32.60;;;5.45;;
23282;SDS011;11810;51.178;3.878;2023-02-01T16:05:04;31.55;;;7.50;;
23282;SDS011;11810;51.178;3.878;2023-02-01T16:08:11;28.67;;;7.45;;
23282;SDS011;11810;51.178;3.878;2023-02-01T16:10:39;29.35;;;7.07;;
23282;SDS011;11810;51.178;3.878;2023-02-01T16:13:06;51.80;;;12.52;;
23282;SDS011;11810;51.178;3.878;2023-02-01T16:15:32;27.23;;;6.13;;
23282;SDS011;11810;51.178;3.878;2023-02-01T16:17:58;43.33;;;9.30;;
23282;SDS011;11810;51.178;3.878;2023-02-01T16:20:23;42.25;;;9.27;;
23282;SDS011;11810;51.178;3.878;2023-02-01T16:22:49;76.65;;;22.67;;
23282;SDS011;11810;51.178;3.878;2023-02-01T16:25:15;76.53;;;20.30;;
23282;SDS011;11810;51.178;3.878;2023-02-01T16:27:41;39.45;;;8.98;;
23282;SDS011;11810;51.178;3.878;2023-02-01T16:30:07;58.63;;;16.52;;
23282;SDS011;11810;51.178;3.878;2023-02-01T16:32:35;95.47;;;31.70;;
23282;SDS011;11810;51.178;3.878;2023-02-01T16:35:42;103.97;;;35.05;;
23282;SDS011;11810;51.178;3.878;2023-02-01T16:38:09;98.82;;;34.40;;
23282;SDS011;11810;51.178;3.878;2023-02-01T16:42:43;46.42;;;13.45;;
23282;SDS011;11810;51.178;3.878;2023-02-01T16:45:11;88.20;;;28.63;;
23282;SDS011;11810;51.178;3.878;2023-02-01T16:47:37;86.70;;;30.10;;
23282;SDS011;11810;51.178;3.878;2023-02-01T16:50:05;85.43;;;31.20;;
23282;SDS011;11810;51.178;3.878;2023-02-01T16:52:43;90.47;;;33.88;;
23282;SDS011;11810;51.178;3.878;2023-02-01T16:55:12;51.42;;;14.85;;
23282;SDS011;11810;51.178;3.878;2023-02-01T16:57:40;56.22;;;13.57;;
23282;SDS011;11810;51.178;3.878;2023-02-01T17:00:09;46.13;;;9.57;;
23282;SDS011;11810;51.178;3.878;2023-02-01T17:02:36;38.97;;;10.18;;
23282;SDS011;11810;51.178;3.878;2023-02-01T17:05:03;51.55;;;13.55;;
23282;SDS011;11810;51.178;3.878;2023-02-01T17:07:29;36.97;;;8.20;;
23282;SDS011;11810;51.178;3.878;2023-02-01T17:09:55;30.33;;;7.40;;
23282;SDS011;11810;51.178;3.878;2023-02-01T17:12:25;33.58;;;8.15;;
23282;SDS011;11810;51.178;3.878;2023-02-01T17:14:54;41.88;;;10.07;;
23282;SDS011;11810;51.178;3.878;2023-02-01T17:17:21;52.00;;;13.95;;
23282;SDS011;11810;51.178;3.878;2023-02-01T17:19:49;42.88;;;10.55;;
23282;SDS011;11810;51.178;3.878;2023-02-01T17:22:18;43.50;;;9.27;;
23282;SDS011;11810;51.178;3.878;2023-02-01T17:24:45;48.70;;;10.43;;
23282;SDS011;11810;51.178;3.878;2023-02-01T17:27:11;54.53;;;14.85;;
23282;SDS011;11810;51.178;3.878;2023-02-01T17:29:37;36.20;;;10.73;;
23282;SDS011;11810;51.178;3.878;2023-02-01T17:32:05;56.78;;;14.20;;
23282;SDS011;11810;51.178;3.878;2023-02-01T17:34:37;66.55;;;18.02;;
23282;SDS011;11810;51.178;3.878;2023-02-01T17:37:04;75.80;;;22.70;;
23282;SDS011;11810;51.178;3.878;2023-02-01T17:40:51;75.82;;;21.33;;
23282;SDS011;11810;51.178;3.878;2023-02-01T17:43:20;78.43;;;23.40;;
23282;SDS011;11810;51.178;3.878;2023-02-01T17:45:54;76.15;;;22.92;;
23282;SDS011;11810;51.178;3.878;2023-02-01T17:48:25;96.03;;;29.92;;
23282;SDS011;11810;51.178;3.878;2023-02-01T17:50:51;76.18;;;26.13;;
23282;SDS011;11810;51.178;3.878;2023-02-01T17:53:26;77.63;;;26.02;;
23282;SDS011;11810;51.178;3.878;2023-02-01T17:55:53;68.15;;;22.00;;
23282;SDS011;11810;51.178;3.878;2023-02-01T17:58:20;63.72;;;24.45;;
23282;SDS011;11810;51.178;3.878;2023-02-01T18:00:47;66.20;;;22.83;;
23282;SDS011;11810;51.178;3.878;2023-02-01T18:05:51;62.05;;;20.63;;
23282;SDS011;11810;51.178;3.878;2023-02-01T18:08:24;45.00;;;14.10;;